CZFN/ZFN METAR and TAF weather

Enter ICAO airport designator
Station Type Date Time Source
CZFN METAR 2018/12/13 00:00 UTC NOAA

CZFN 130000Z 24005KT 15SM -SN OVC033 M19/M22 A2943 RMK SC8 -18.7 / -19.9 / TR / SNW CVR / MUCH LOOSE / LAST STFD OBS/NEXT 131600Z SLP979


Station Type Date Time Source
CZFN Decoded METAR 2018/12/13 00:00 UTC NOAA

Fort Norman Airport, Canada (CZFN) 64-55N 125-34W
Dec 12, 2018 - 07:00 PM EST / 2018.12.13 0000 UTC
Wind: from the WSW (240 degrees) at 6 MPH (5 KT):0
Visibility: 15 mile(s):0
Sky conditions: overcast
Weather: light snow
Temperature: -2 F (-19 C)
Windchill: -14 F (-26 C):2
Dew Point: -7 F (-22 C)
Relative Humidity: 77%
Pressure (altimeter): 29.43 in. Hg (996 hPa)
ob: CZFN 130000Z 24005KT 15SM -SN OVC033 M19/M22 A2943 RMK SC8 -18.7 / -19.9 / TR / SNW CVR / MUCH LOOSE / LAST STFD OBS/NEXT 131600Z SLP979
cycle: 0

Station Type Date Time Source
CZFN TAF UTC NOAA

Error!


Example: see airport list